sensor_id;sensor_type;location;lat;lon;timestamp;temperature;humidity
12967;DHT22;6548;49.996;8.238;2022-12-16T00:01:37;-5.00;99.90
12967;DHT22;6548;49.996;8.238;2022-12-16T00:04:03;-4.00;99.90
12967;DHT22;6548;49.996;8.238;2022-12-16T00:06:31;-5.10;99.90
12967;DHT22;6548;49.996;8.238;2022-12-16T00:08:57;-4.90;99.90
12967;DHT22;6548;49.996;8.238;2022-12-16T00:11:23;-4.30;99.90
12967;DHT22;6548;49.996;8.238;2022-12-16T00:13:49;-5.10;99.90
12967;DHT22;6548;49.996;8.238;2022-12-16T00:16:17;-5.10;99.90
12967;DHT22;6548;49.996;8.238;2022-12-16T00:18:43;-5.00;99.90
12967;DHT22;6548;49.996;8.238;2022-12-16T00:21:09;-4.30;99.90
12967;DHT22;6548;49.996;8.238;2022-12-16T00:23:35;-4.90;99.90
12967;DHT22;6548;49.996;8.238;2022-12-16T00:26:03;-4.80;99.90
12967;DHT22;6548;49.996;8.238;2022-12-16T00:28:29;-4.90;99.90
12967;DHT22;6548;49.996;8.238;2022-12-16T00:30:55;-4.90;99.90
12967;DHT22;6548;49.996;8.238;2022-12-16T00:33:22;-4.80;99.90
12967;DHT22;6548;49.996;8.238;2022-12-16T00:35:48;-4.40;99.90
12967;DHT22;6548;49.996;8.238;2022-12-16T00:38:14;-4.80;99.90
12967;DHT22;6548;49.996;8.238;2022-12-16T00:40:41;-4.10;99.90
12967;DHT22;6548;49.996;8.238;2022-12-16T00:43:06;-4.80;99.90
12967;DHT22;6548;49.996;8.238;2022-12-16T00:45:32;-4.70;99.90
12967;DHT22;6548;49.996;8.238;2022-12-16T00:47:58;-4.70;99.90
12967;DHT22;6548;49.996;8.238;2022-12-16T00:50:23;-4.70;99.90
12967;DHT22;6548;49.996;8.238;2022-12-16T00:52:49;-3.70;99.90
12967;DHT22;6548;49.996;8.238;2022-12-16T00:55:16;-3.80;99.90
12967;DHT22;6548;49.996;8.238;2022-12-16T00:57:41;-4.60;99.90
12967;DHT22;6548;49.996;8.238;2022-12-16T01:00:08;-3.80;99.90
12967;DHT22;6548;49.996;8.238;2022-12-16T01:02:38;-4.60;99.90
12967;DHT22;6548;49.996;8.238;2022-12-16T01:05:05;-4.50;99.90
12967;DHT22;6548;49.996;8.238;2022-12-16T01:07:30;-4.50;99.90
12967;DHT22;6548;49.996;8.238;2022-12-16T01:09:56;-4.40;99.90
12967;DHT22;6548;49.996;8.238;2022-12-16T01:12:21;-4.40;99.90
12967;DHT22;6548;49.996;8.238;2022-12-16T01:14:48;-4.30;99.90
12967;DHT22;6548;49.996;8.238;2022-12-16T01:17:14;-3.30;99.90
12967;DHT22;6548;49.996;8.238;2022-12-16T01:19:40;-4.30;99.90
12967;DHT22;6548;49.996;8.238;2022-12-16T01:22:05;-3.20;99.90
12967;DHT22;6548;49.996;8.238;2022-12-16T01:24:31;-4.20;99.90
12967;DHT22;6548;49.996;8.238;2022-12-16T01:26:56;-4.20;99.90
12967;DHT22;6548;49.996;8.238;2022-12-16T01:29:22;-4.20;99.90
12967;DHT22;6548;49.996;8.238;2022-12-16T01:31:47;-4.10;99.90
12967;DHT22;6548;49.996;8.238;2022-12-16T01:34:13;-4.30;99.90
12967;DHT22;6548;49.996;8.238;2022-12-16T01:36:39;-4.50;99.90
12967;DHT22;6548;49.996;8.238;2022-12-16T01:39:04;-4.70;99.90
12967;DHT22;6548;49.996;8.238;2022-12-16T01:41:30;-4.90;99.90
12967;DHT22;6548;49.996;8.238;2022-12-16T01:44:20;-4.90;99.90
12967;DHT22;6548;49.996;8.238;2022-12-16T01:46:58;-4.70;99.90
12967;DHT22;6548;49.996;8.238;2022-12-16T01:49:37;-4.60;99.90
12967;DHT22;6548;49.996;8.238;2022-12-16T01:52:08;-4.90;99.90
12967;DHT22;6548;49.996;8.238;2022-12-16T01:54:42;-5.00;99.90
12967;DHT22;6548;49.996;8.238;2022-12-16T01:57:13;-5.00;99.90
12967;DHT22;6548;49.996;8.238;2022-12-16T01:59:42;-4.30;99.90
12967;DHT22;6548;49.996;8.238;2022-12-16T02:02:10;-4.60;99.90
12967;DHT22;6548;49.996;8.238;2022-12-16T02:04:36;-5.40;99.90
12967;DHT22;6548;49.996;8.238;2022-12-16T02:07:22;-5.60;99.90
12967;DHT22;6548;49.996;8.238;2022-12-16T02:09:47;-5.60;99.90
12967;DHT22;6548;49.996;8.238;2022-12-16T02:12:33;-5.60;99.90
12967;DHT22;6548;49.996;8.238;2022-12-16T02:15:14;-5.70;99.90
12967;DHT22;6548;49.996;8.238;2022-12-16T02:18:07;-5.70;99.90
12967;DHT22;6548;49.996;8.238;2022-12-16T02:23:53;-5.70;99.90
12967;DHT22;6548;49.996;8.238;2022-12-16T02:32:11;-5.30;99.90
12967;DHT22;6548;49.996;8.238;2022-12-16T02:37:43;-5.90;99.90
12967;DHT22;6548;49.996;8.238;2022-12-16T02:40:21;-6.10;99.90
12967;DHT22;6548;49.996;8.238;2022-12-16T02:42:52;-6.10;99.90
12967;DHT22;6548;49.996;8.238;2022-12-16T02:45:23;-5.20;99.90
12967;DHT22;6548;49.996;8.238;2022-12-16T02:47:50;-5.30;99.90
12967;DHT22;6548;49.996;8.238;2022-12-16T02:50:32;-6.00;99.90
12967;DHT22;6548;49.996;8.238;2022-12-16T02:53:00;-6.00;99.90
12967;DHT22;6548;49.996;8.238;2022-12-16T02:55:39;-4.70;99.90
12967;DHT22;6548;49.996;8.238;2022-12-16T02:58:09;-5.70;99.90
12967;DHT22;6548;49.996;8.238;2022-12-16T03:04:20;-5.50;99.90
12967;DHT22;6548;49.996;8.238;2022-12-16T03:06:21;-5.30;99.90
12967;DHT22;6548;49.996;8.238;2022-12-16T03:08:52;-4.30;99.90
12967;DHT22;6548;49.996;8.238;2022-12-16T03:11:20;-5.30;99.90
12967;DHT22;6548;49.996;8.238;2022-12-16T03:13:49;-4.00;99.90
12967;DHT22;6548;49.996;8.238;2022-12-16T03:16:18;-5.10;99.90
12967;DHT22;6548;49.996;8.238;2022-12-16T03:18:48;-4.40;99.90
12967;DHT22;6548;49.996;8.238;2022-12-16T03:21:15;-5.10;99.90
12967;DHT22;6548;49.996;8.238;2022-12-16T03:23:50;-5.10;99.90
12967;DHT22;6548;49.996;8.238;2022-12-16T03:29:15;-5.10;99.90
12967;DHT22;6548;49.996;8.238;2022-12-16T03:31:51;-5.00;99.90
12967;DHT22;6548;49.996;8.238;2022-12-16T03:34:54;-5.00;99.90
12967;DHT22;6548;49.996;8.238;2022-12-16T03:37:24;-5.00;99.90
12967;DHT22;6548;49.996;8.238;2022-12-16T03:39:56;-4.90;99.90
12967;DHT22;6548;49.996;8.238;2022-12-16T03:42:23;-4.80;99.90
12967;DHT22;6548;49.996;8.238;2022-12-16T03:44:49;-4.80;99.90
12967;DHT22;6548;49.996;8.238;2022-12-16T03:47:15;-4.80;99.90
12967;DHT22;6548;49.996;8.238;2022-12-16T03:49:40;-4.70;99.90
12967;DHT22;6548;49.996;8.238;2022-12-16T03:52:07;-4.80;99.90
12967;DHT22;6548;49.996;8.238;2022-12-16T03:54:32;-4.80;99.90
12967;DHT22;6548;49.996;8.238;2022-12-16T03:56:59;-4.90;99.90
12967;DHT22;6548;49.996;8.238;2022-12-16T03:59:24;-4.90;99.90
12967;DHT22;6548;49.996;8.238;2022-12-16T04:01:50;-4.90;99.90
12967;DHT22;6548;49.996;8.238;2022-12-16T04:04:16;-5.00;99.90
12967;DHT22;6548;49.996;8.238;2022-12-16T04:06:42;-5.10;99.90
12967;DHT22;6548;49.996;8.238;2022-12-16T04:09:08;-5.30;99.90
12967;DHT22;6548;49.996;8.238;2022-12-16T04:11:33;-5.30;99.90
12967;DHT22;6548;49.996;8.238;2022-12-16T04:14:17;-5.40;99.90
12967;DHT22;6548;49.996;8.238;2022-12-16T04:17:02;-5.50;99.90
12967;DHT22;6548;49.996;8.238;2022-12-16T04:19:47;-5.50;99.90
12967;DHT22;6548;49.996;8.238;2022-12-16T04:22:35;-5.50;99.90
12967;DHT22;6548;49.996;8.238;2022-12-16T04:25:24;-5.40;99.90
12967;DHT22;6548;49.996;8.238;2022-12-16T04:27:50;-5.30;99.90
12967;DHT22;6548;49.996;8.238;2022-12-16T04:30:17;-5.30;99.90
12967;DHT22;6548;49.996;8.238;2022-12-16T04:32:47;-5.30;99.90
12967;DHT22;6548;49.996;8.238;2022-12-16T04:35:32;-5.30;99.90
12967;DHT22;6548;49.996;8.238;2022-12-16T04:38:16;-5.30;99.90
12967;DHT22;6548;49.996;8.238;2022-12-16T04:41:01;-5.10;99.90
12967;DHT22;6548;49.996;8.238;2022-12-16T04:43:45;-5.00;99.90
12967;DHT22;6548;49.996;8.238;2022-12-16T04:46:29;-4.90;99.90
12967;DHT22;6548;49.996;8.238;2022-12-16T04:49:13;-5.00;99.90
12967;DHT22;6548;49.996;8.238;2022-12-16T04:51:57;-4.90;99.90
12967;DHT22;6548;49.996;8.238;2022-12-16T04:55:02;-4.80;99.90
12967;DHT22;6548;49.996;8.238;2022-12-16T04:57:55;-4.70;99.90
12967;DHT22;6548;49.996;8.238;2022-12-16T05:00:39;-4.70;99.90
12967;DHT22;6548;49.996;8.238;2022-12-16T05:03:24;-4.70;99.90
12967;DHT22;6548;49.996;8.238;2022-12-16T05:06:09;-4.70;99.90
12967;DHT22;6548;49.996;8.238;2022-12-16T05:08:53;-4.70;99.90
12967;DHT22;6548;49.996;8.238;2022-12-16T05:11:37;-4.70;99.90
12967;DHT22;6548;49.996;8.238;2022-12-16T05:14:21;-4.70;99.90
12967;DHT22;6548;49.996;8.238;2022-12-16T05:17:05;-4.60;99.90
12967;DHT22;6548;49.996;8.238;2022-12-16T05:19:49;-4.60;99.90
12967;DHT22;6548;49.996;8.238;2022-12-16T05:22:33;-4.70;99.90
12967;DHT22;6548;49.996;8.238;2022-12-16T05:25:18;-4.70;99.90
12967;DHT22;6548;49.996;8.238;2022-12-16T05:28:02;-4.80;99.90
12967;DHT22;6548;49.996;8.238;2022-12-16T05:30:46;-4.70;99.90
12967;DHT22;6548;49.996;8.238;2022-12-16T05:33:30;-4.60;99.90
12967;DHT22;6548;49.996;8.238;2022-12-16T05:36:14;-4.50;99.90
12967;DHT22;6548;49.996;8.238;2022-12-16T05:38:58;-4.50;99.90
12967;DHT22;6548;49.996;8.238;2022-12-16T05:41:42;-4.60;99.90
12967;DHT22;6548;49.996;8.238;2022-12-16T05:44:26;-4.70;99.90
12967;DHT22;6548;49.996;8.238;2022-12-16T05:47:11;-4.70;99.90
12967;DHT22;6548;49.996;8.238;2022-12-16T05:49:55;-4.80;99.90
12967;DHT22;6548;49.996;8.238;2022-12-16T05:52:39;-4.70;99.90
12967;DHT22;6548;49.996;8.238;2022-12-16T05:55:23;-4.70;99.90
12967;DHT22;6548;49.996;8.238;2022-12-16T05:58:08;-4.70;99.90
12967;DHT22;6548;49.996;8.238;2022-12-16T06:00:52;-4.60;99.90
12967;DHT22;6548;49.996;8.238;2022-12-16T06:03:37;-4.70;99.90
12967;DHT22;6548;49.996;8.238;2022-12-16T06:06:21;-4.80;99.90
12967;DHT22;6548;49.996;8.238;2022-12-16T06:09:05;-4.80;99.90
12967;DHT22;6548;49.996;8.238;2022-12-16T06:11:49;-4.90;99.90
12967;DHT22;6548;49.996;8.238;2022-12-16T06:14:34;-4.80;99.90
12967;DHT22;6548;49.996;8.238;2022-12-16T06:17:19;-4.80;99.90
12967;DHT22;6548;49.996;8.238;2022-12-16T06:20:04;-5.00;99.90
12967;DHT22;6548;49.996;8.238;2022-12-16T06:22:53;-5.10;99.90
12967;DHT22;6548;49.996;8.238;2022-12-16T06:25:37;-5.30;99.90
12967;DHT22;6548;49.996;8.238;2022-12-16T06:28:21;-5.60;99.90
12967;DHT22;6548;49.996;8.238;2022-12-16T06:31:05;-5.70;99.90
12967;DHT22;6548;49.996;8.238;2022-12-16T06:33:50;-5.80;99.90
12967;DHT22;6548;49.996;8.238;2022-12-16T06:36:34;-6.00;99.90
12967;DHT22;6548;49.996;8.238;2022-12-16T06:39:18;-6.10;99.90
12967;DHT22;6548;49.996;8.238;2022-12-16T06:42:02;-6.00;99.90
12967;DHT22;6548;49.996;8.238;2022-12-16T06:44:46;-6.10;99.90
12967;DHT22;6548;49.996;8.238;2022-12-16T06:47:30;-6.20;99.90
12967;DHT22;6548;49.996;8.238;2022-12-16T06:50:14;-6.40;99.90
12967;DHT22;6548;49.996;8.238;2022-12-16T06:52:58;-6.30;99.90
12967;DHT22;6548;49.996;8.238;2022-12-16T06:55:42;-6.30;99.90
12967;DHT22;6548;49.996;8.238;2022-12-16T06:58:26;-6.20;99.90
12967;DHT22;6548;49.996;8.238;2022-12-16T07:01:10;-6.30;99.90
12967;DHT22;6548;49.996;8.238;2022-12-16T07:03:54;-6.30;99.90
12967;DHT22;6548;49.996;8.238;2022-12-16T07:06:39;-6.20;99.90
12967;DHT22;6548;49.996;8.238;2022-12-16T07:09:23;-6.10;99.90
12967;DHT22;6548;49.996;8.238;2022-12-16T07:12:07;-6.20;99.90
12967;DHT22;6548;49.996;8.238;2022-12-16T07:14:51;-6.20;99.90
12967;DHT22;6548;49.996;8.238;2022-12-16T07:17:38;-6.20;99.90
12967;DHT22;6548;49.996;8.238;2022-12-16T07:20:23;-6.20;99.90
12967;DHT22;6548;49.996;8.238;2022-12-16T07:23:07;-6.20;99.90
12967;DHT22;6548;49.996;8.238;2022-12-16T07:25:51;-6.10;99.90
12967;DHT22;6548;49.996;8.238;2022-12-16T07:28:35;-6.00;99.90
12967;DHT22;6548;49.996;8.238;2022-12-16T07:31:20;-6.00;99.90
12967;DHT22;6548;49.996;8.238;2022-12-16T07:34:04;-6.00;99.90
12967;DHT22;6548;49.996;8.238;2022-12-16T07:36:48;-6.00;99.90
12967;DHT22;6548;49.996;8.238;2022-12-16T07:39:32;-6.00;99.90
12967;DHT22;6548;49.996;8.238;2022-12-16T07:42:16;-6.00;99.90
12967;DHT22;6548;49.996;8.238;2022-12-16T07:45:00;-5.90;99.90
12967;DHT22;6548;49.996;8.238;2022-12-16T07:47:48;-5.80;99.90
12967;DHT22;6548;49.996;8.238;2022-12-16T07:50:34;-5.70;99.90
12967;DHT22;6548;49.996;8.238;2022-12-16T07:53:18;-5.70;99.90
12967;DHT22;6548;49.996;8.238;2022-12-16T07:56:02;-5.60;99.90
12967;DHT22;6548;49.996;8.238;2022-12-16T07:58:46;-5.50;99.90
12967;DHT22;6548;49.996;8.238;2022-12-16T08:01:30;-5.30;99.90
12967;DHT22;6548;49.996;8.238;2022-12-16T08:04:14;-5.00;99.90
12967;DHT22;6548;49.996;8.238;2022-12-16T08:06:58;-4.70;99.90
12967;DHT22;6548;49.996;8.238;2022-12-16T08:09:42;-4.40;99.90
12967;DHT22;6548;49.996;8.238;2022-12-16T08:12:26;-4.00;99.90
12967;DHT22;6548;49.996;8.238;2022-12-16T08:15:11;-3.70;99.90
12967;DHT22;6548;49.996;8.238;2022-12-16T08:17:55;-3.40;99.90
12967;DHT22;6548;49.996;8.238;2022-12-16T08:20:39;-3.20;99.90
12967;DHT22;6548;49.996;8.238;2022-12-16T08:23:23;-3.10;99.90
12967;DHT22;6548;49.996;8.238;2022-12-16T08:26:07;-2.80;99.90
12967;DHT22;6548;49.996;8.238;2022-12-16T08:28:51;-2.70;99.90
12967;DHT22;6548;49.996;8.238;2022-12-16T08:31:35;-3.00;99.90
12967;DHT22;6548;49.996;8.238;2022-12-16T08:34:20;-2.80;99.90
12967;DHT22;6548;49.996;8.238;2022-12-16T08:37:04;-2.30;99.90
12967;DHT22;6548;49.996;8.238;2022-12-16T08:39:49;-2.20;99.90
12967;DHT22;6548;49.996;8.238;2022-12-16T08:42:33;-1.80;99.90
12967;DHT22;6548;49.996;8.238;2022-12-16T08:45:18;-1.50;99.90
12967;DHT22;6548;49.996;8.238;2022-12-16T08:48:02;-1.40;99.90
12967;DHT22;6548;49.996;8.238;2022-12-16T08:50:47;-1.60;99.90
12967;DHT22;6548;49.996;8.238;2022-12-16T08:53:31;-1.10;99.90
12967;DHT22;6548;49.996;8.238;2022-12-16T08:56:15;-0.70;99.90
12967;DHT22;6548;49.996;8.238;2022-12-16T08:58:59;-0.50;99.90
12967;DHT22;6548;49.996;8.238;2022-12-16T09:01:43;-0.50;99.90
12967;DHT22;6548;49.996;8.238;2022-12-16T09:04:27;-0.20;99.90
12967;DHT22;6548;49.996;8.238;2022-12-16T09:07:11;-0.40;99.90
12967;DHT22;6548;49.996;8.238;2022-12-16T09:09:55;-0.40;99.90
12967;DHT22;6548;49.996;8.238;2022-12-16T09:12:39;-0.30;99.90
12967;DHT22;6548;49.996;8.238;2022-12-16T09:15:23;-0.40;99.90
12967;DHT22;6548;49.996;8.238;2022-12-16T09:18:08;-0.50;99.90
12967;DHT22;6548;49.996;8.238;2022-12-16T09:20:52;-0.30;99.90
12967;DHT22;6548;49.996;8.238;2022-12-16T09:23:36;-0.50;99.90
12967;DHT22;6548;49.996;8.238;2022-12-16T09:26:20;-0.80;99.90
12967;DHT22;6548;49.996;8.238;2022-12-16T09:29:04;-0.40;99.90
12967;DHT22;6548;49.996;8.238;2022-12-16T09:31:48;-0.30;99.90
12967;DHT22;6548;49.996;8.238;2022-12-16T09:34:32;-0.20;99.90
12967;DHT22;6548;49.996;8.238;2022-12-16T09:37:16;-0.40;99.90
12967;DHT22;6548;49.996;8.238;2022-12-16T09:40:01;-0.60;99.90
12967;DHT22;6548;49.996;8.238;2022-12-16T09:42:55;-0.50;99.90
12967;DHT22;6548;49.996;8.238;2022-12-16T09:46:12;-0.50;99.90
12967;DHT22;6548;49.996;8.238;2022-12-16T09:49:15;-0.30;99.90
12967;DHT22;6548;49.996;8.238;2022-12-16T16:26:21;-1.70;99.90
12967;DHT22;6548;49.996;8.238;2022-12-16T18:33:36;-3.40;99.90
12967;DHT22;6548;49.996;8.238;2022-12-16T18:36:20;-3.50;99.90
12967;DHT22;6548;49.996;8.238;2022-12-16T18:39:04;-3.60;99.90
12967;DHT22;6548;49.996;8.238;2022-12-16T18:41:48;-3.70;99.90
12967;DHT22;6548;49.996;8.238;2022-12-16T18:44:34;-3.70;99.90
12967;DHT22;6548;49.996;8.238;2022-12-16T18:47:19;-3.90;99.90
12967;DHT22;6548;49.996;8.238;2022-12-16T18:50:04;-3.90;99.90
12967;DHT22;6548;49.996;8.238;2022-12-16T18:52:49;-3.90;99.90
12967;DHT22;6548;49.996;8.238;2022-12-16T18:55:33;-3.70;99.90
12967;DHT22;6548;49.996;8.238;2022-12-16T18:58:17;-3.70;99.90
12967;DHT22;6548;49.996;8.238;2022-12-16T19:01:05;-3.70;99.90
12967;DHT22;6548;49.996;8.238;2022-12-16T19:03:51;-3.80;99.90
12967;DHT22;6548;49.996;8.238;2022-12-16T19:06:36;-4.00;99.90
12967;DHT22;6548;49.996;8.238;2022-12-16T19:09:20;-4.10;99.90
12967;DHT22;6548;49.996;8.238;2022-12-16T19:12:04;-4.10;99.90
12967;DHT22;6548;49.996;8.238;2022-12-16T19:14:48;-4.30;99.90
12967;DHT22;6548;49.996;8.238;2022-12-16T19:17:32;-4.40;99.90
12967;DHT22;6548;49.996;8.238;2022-12-16T19:20:16;-4.30;99.90
12967;DHT22;6548;49.996;8.238;2022-12-16T19:23:01;-4.10;99.90
12967;DHT22;6548;49.996;8.238;2022-12-16T19:25:44;-3.00;99.90
12967;DHT22;6548;49.996;8.238;2022-12-16T19:28:29;-4.00;99.90
12967;DHT22;6548;49.996;8.238;2022-12-16T19:31:13;-3.80;99.90
12967;DHT22;6548;49.996;8.238;2022-12-16T19:33:57;-4.10;99.90
12967;DHT22;6548;49.996;8.238;2022-12-16T19:36:41;-4.20;99.90
12967;DHT22;6548;49.996;8.238;2022-12-16T19:39:26;-4.10;99.90
12967;DHT22;6548;49.996;8.238;2022-12-16T19:42:10;-4.10;99.90
12967;DHT22;6548;49.996;8.238;2022-12-16T19:44:54;-4.20;99.90
12967;DHT22;6548;49.996;8.238;2022-12-16T19:47:38;-4.30;99.90
12967;DHT22;6548;49.996;8.238;2022-12-16T19:50:22;-4.20;99.90
12967;DHT22;6548;49.996;8.238;2022-12-16T19:53:06;-3.60;99.90
12967;DHT22;6548;49.996;8.238;2022-12-16T19:55:57;-4.30;99.90
12967;DHT22;6548;49.996;8.238;2022-12-16T19:58:42;-4.30;99.90
12967;DHT22;6548;49.996;8.238;2022-12-16T20:01:26;-4.30;99.90
12967;DHT22;6548;49.996;8.238;2022-12-16T20:04:27;-4.40;99.90
12967;DHT22;6548;49.996;8.238;2022-12-16T20:07:11;-4.50;99.90
12967;DHT22;6548;49.996;8.238;2022-12-16T20:09:55;-4.70;99.90
12967;DHT22;6548;49.996;8.238;2022-12-16T20:12:39;-4.80;99.90
12967;DHT22;6548;49.996;8.238;2022-12-16T20:15:24;-4.80;99.90
12967;DHT22;6548;49.996;8.238;2022-12-16T20:18:08;-4.70;99.90
12967;DHT22;6548;49.996;8.238;2022-12-16T20:20:52;-4.80;99.90
12967;DHT22;6548;49.996;8.238;2022-12-16T20:23:36;-5.10;99.90
12967;DHT22;6548;49.996;8.238;2022-12-16T20:26:20;-5.10;99.90
12967;DHT22;6548;49.996;8.238;2022-12-16T20:29:04;-5.00;99.90
12967;DHT22;6548;49.996;8.238;2022-12-16T20:31:48;-5.00;99.90
12967;DHT22;6548;49.996;8.238;2022-12-16T20:34:32;-5.00;99.90
12967;DHT22;6548;49.996;8.238;2022-12-16T20:37:16;-4.90;99.90
12967;DHT22;6548;49.996;8.238;2022-12-16T20:40:00;-4.90;99.90
12967;DHT22;6548;49.996;8.238;2022-12-16T20:42:44;-5.00;99.90
12967;DHT22;6548;49.996;8.238;2022-12-16T20:45:28;-5.00;99.90
12967;DHT22;6548;49.996;8.238;2022-12-16T20:48:14;-5.00;99.90
12967;DHT22;6548;49.996;8.238;2022-12-16T20:51:00;-4.90;99.90
12967;DHT22;6548;49.996;8.238;2022-12-16T20:53:47;-4.80;99.90
12967;DHT22;6548;49.996;8.238;2022-12-16T20:56:32;-4.80;99.90
12967;DHT22;6548;49.996;8.238;2022-12-16T20:59:16;-4.80;99.90
12967;DHT22;6548;49.996;8.238;2022-12-16T21:02:00;-4.40;99.90
12967;DHT22;6548;49.996;8.238;2022-12-16T21:04:44;-4.70;99.90
12967;DHT22;6548;49.996;8.238;2022-12-16T21:07:28;-4.80;99.90
12967;DHT22;6548;49.996;8.238;2022-12-16T21:10:12;-4.90;99.90
12967;DHT22;6548;49.996;8.238;2022-12-16T21:13:07;-4.90;99.90
12967;DHT22;6548;49.996;8.238;2022-12-16T21:15:51;-4.90;99.90
12967;DHT22;6548;49.996;8.238;2022-12-16T21:18:36;-4.90;99.90
12967;DHT22;6548;49.996;8.238;2022-12-16T21:21:20;-5.00;99.90
12967;DHT22;6548;49.996;8.238;2022-12-16T21:24:04;-5.10;99.90
12967;DHT22;6548;49.996;8.238;2022-12-16T21:26:48;-5.10;99.90
12967;DHT22;6548;49.996;8.238;2022-12-16T21:29:32;-4.80;99.90
12967;DHT22;6548;49.996;8.238;2022-12-16T21:32:16;-5.10;99.90
12967;DHT22;6548;49.996;8.238;2022-12-16T21:35:01;-5.20;99.90
12967;DHT22;6548;49.996;8.238;2022-12-16T21:37:45;-5.40;99.90
12967;DHT22;6548;49.996;8.238;2022-12-16T21:40:30;-5.50;99.90
12967;DHT22;6548;49.996;8.238;2022-12-16T21:43:17;-5.60;99.90
12967;DHT22;6548;49.996;8.238;2022-12-16T21:46:01;-5.70;99.90
12967;DHT22;6548;49.996;8.238;2022-12-16T21:48:45;-5.80;99.90
12967;DHT22;6548;49.996;8.238;2022-12-16T21:51:42;-5.50;99.90
12967;DHT22;6548;49.996;8.238;2022-12-16T21:54:27;-5.20;99.90
12967;DHT22;6548;49.996;8.238;2022-12-16T21:57:11;-5.10;99.90
12967;DHT22;6548;49.996;8.238;2022-12-16T22:00:12;-5.40;99.90
12967;DHT22;6548;49.996;8.238;2022-12-16T22:02:56;-5.40;99.90
12967;DHT22;6548;49.996;8.238;2022-12-16T22:05:40;-5.30;99.90
12967;DHT22;6548;49.996;8.238;2022-12-16T22:08:25;-5.30;99.90
12967;DHT22;6548;49.996;8.238;2022-12-16T22:11:13;-5.40;99.90
12967;DHT22;6548;49.996;8.238;2022-12-16T22:13:57;-5.40;99.90
12967;DHT22;6548;49.996;8.238;2022-12-16T22:16:41;-5.40;99.90
12967;DHT22;6548;49.996;8.238;2022-12-16T22:19:26;-5.60;99.90
12967;DHT22;6548;49.996;8.238;2022-12-16T22:22:10;-5.70;99.90
12967;DHT22;6548;49.996;8.238;2022-12-16T22:24:54;-5.80;99.90
12967;DHT22;6548;49.996;8.238;2022-12-16T22:27:38;-5.40;99.90
12967;DHT22;6548;49.996;8.238;2022-12-16T22:30:22;-5.90;99.90
12967;DHT22;6548;49.996;8.238;2022-12-16T22:33:12;-5.80;99.90
12967;DHT22;6548;49.996;8.238;2022-12-16T22:36:05;-5.70;99.90
12967;DHT22;6548;49.996;8.238;2022-12-16T22:38:50;-5.90;99.90
12967;DHT22;6548;49.996;8.238;2022-12-16T22:41:34;-5.90;99.90
12967;DHT22;6548;49.996;8.238;2022-12-16T22:44:18;-5.80;99.90
12967;DHT22;6548;49.996;8.238;2022-12-16T22:47:02;-6.10;99.90
12967;DHT22;6548;49.996;8.238;2022-12-16T22:49:46;-6.20;99.90
12967;DHT22;6548;49.996;8.238;2022-12-16T22:52:30;-6.20;99.90
12967;DHT22;6548;49.996;8.238;2022-12-16T22:55:14;-6.20;99.90
12967;DHT22;6548;49.996;8.238;2022-12-16T22:58:05;-6.00;99.90
12967;DHT22;6548;49.996;8.238;2022-12-16T23:00:50;-5.90;99.90
12967;DHT22;6548;49.996;8.238;2022-12-16T23:03:34;-6.00;99.90
12967;DHT22;6548;49.996;8.238;2022-12-16T23:06:18;-6.00;99.90
12967;DHT22;6548;49.996;8.238;2022-12-16T23:09:05;-5.90;99.90
12967;DHT22;6548;49.996;8.238;2022-12-16T23:11:49;-5.80;99.90
12967;DHT22;6548;49.996;8.238;2022-12-16T23:14:34;-5.80;99.90
12967;DHT22;6548;49.996;8.238;2022-12-16T23:17:19;-5.70;99.90
12967;DHT22;6548;49.996;8.238;2022-12-16T23:20:03;-5.60;99.90
12967;DHT22;6548;49.996;8.238;2022-12-16T23:22:48;-5.70;99.90
12967;DHT22;6548;49.996;8.238;2022-12-16T23:25:32;-5.80;99.90
12967;DHT22;6548;49.996;8.238;2022-12-16T23:28:16;-5.90;99.90
12967;DHT22;6548;49.996;8.238;2022-12-16T23:31:00;-5.90;99.90
12967;DHT22;6548;49.996;8.238;2022-12-16T23:33:44;-5.90;99.90
12967;DHT22;6548;49.996;8.238;2022-12-16T23:36:28;-6.30;99.90
12967;DHT22;6548;49.996;8.238;2022-12-16T23:39:17;-6.30;99.90
12967;DHT22;6548;49.996;8.238;2022-12-16T23:42:01;-6.20;99.90
12967;DHT22;6548;49.996;8.238;2022-12-16T23:44:46;-6.00;99.90
12967;DHT22;6548;49.996;8.238;2022-12-16T23:47:30;-6.00;99.90
12967;DHT22;6548;49.996;8.238;2022-12-16T23:50:14;-6.30;99.90
12967;DHT22;6548;49.996;8.238;2022-12-16T23:53:05;-6.20;99.90
12967;DHT22;6548;49.996;8.238;2022-12-16T23:55:54;-6.30;99.90
12967;DHT22;6548;49.996;8.238;2022-12-16T23:58:38;-6.50;99.90
